Time;durP1;ratioP1;P1;durP2;ratioP2;P2;SDS_P1;SDS_P2;PMS_P1;PMS_P2;Temp;Humidity;BMP_temperature;BMP_pressure;BME280_temperature;BME280_humidity;BME280_pressure;Samples;Min_cycle;Max_cycle;Signal;HPM_P1;HPM_P2
2021/12/05 00:23:47;;;;;;;4.43;3.72;;;3.30;99.90;;;;;;5055894;28;20021;-93
2021/12/05 00:26:18;;;;;;;5.47;3.90;;;3.30;99.90;;;;;;5034152;28;20021;-93
2021/12/05 00:39:34;;;;;;;6.47;3.85;;;3.20;99.90;;;;;;5052378;28;20040;-93
2021/12/05 00:47:31;;;;;;;5.10;3.30;;;3.20;99.90;;;;;;5040210;28;20118;-92
2021/12/05 00:53:16;;;;;;;5.22;3.88;;;3.20;99.90;;;;;;5052670;28;20036;-92
2021/12/05 01:01:17;;;;;;;6.43;3.63;;;3.20;99.90;;;;;;5052681;28;20052;-92
2021/12/05 01:12:12;;;;;;;7.75;3.45;;;3.00;99.90;;;;;;5052999;28;20094;-94
2021/12/05 01:14:57;;;;;;;7.85;4.13;;;2.90;99.90;;;;;;5033789;28;20100;-93
2021/12/05 01:17:28;;;;;;;7.65;3.65;;;2.90;99.90;;;;;;5044564;28;20021;-93
2021/12/05 01:19:55;;;;;;;3.90;3.58;;;2.80;99.90;;;;;;5033839;28;20020;-92
2021/12/05 01:22:22;;;;;;;5.10;3.60;;;2.70;99.90;;;;;;5041401;28;20389;-93
2021/12/05 01:25:15;;;;;;;6.60;3.55;;;2.70;99.90;;;;;;5045441;28;20021;-93
2021/12/05 01:27:48;;;;;;;6.88;3.80;;;2.60;99.90;;;;;;5034127;28;20642;-93
2021/12/05 01:33:08;;;;;;;10.55;3.20;;;2.60;99.90;;;;;;5048340;28;20040;-93
2021/12/05 02:02:23;;;;;;;9.23;4.90;;;2.50;99.90;;;;;;5071651;28;20021;-93
2021/12/05 02:37:31;;;;;;;4.90;4.13;;;2.60;99.90;;;;;;5054893;28;20044;-92
2021/12/05 02:42:35;;;;;;;7.57;4.18;;;2.50;99.90;;;;;;5056123;28;20029;-92
2021/12/05 02:45:04;;;;;;;6.70;3.40;;;2.50;99.90;;;;;;5030470;28;20029;-93
2021/12/05 02:47:33;;;;;;;11.10;3.30;;;2.40;99.90;;;;;;5046762;28;20029;-92
2021/12/05 02:50:05;;;;;;;6.65;2.72;;;2.40;99.90;;;;;;5027726;28;20025;-93
2021/12/05 02:52:34;;;;;;;9.18;3.45;;;2.40;99.90;;;;;;5037576;28;20037;-93
2021/12/05 02:55:27;;;;;;;6.32;3.33;;;2.40;99.90;;;;;;5037448;28;20160;-92
2021/12/05 02:57:58;;;;;;;4.15;2.67;;;2.40;99.90;;;;;;5037163;28;20025;-93
2021/12/05 03:01:23;;;;;;;;;;;2.40;99.90;;;;;;5037306;28;20400;-94
2021/12/05 03:03:26;;;;;;;6.25;2.95;;;2.40;99.90;;;;;;5043960;28;19999;-93
2021/12/05 03:05:59;;;;;;;5.22;2.72;;;2.30;99.90;;;;;;5055135;28;20021;-94
2021/12/05 03:08:25;;;;;;;5.60;3.00;;;2.30;99.90;;;;;;5036822;28;20059;-92
2021/12/05 03:10:52;;;;;;;4.80;3.08;;;2.30;99.90;;;;;;5036855;28;20059;-93
2021/12/05 03:13:18;;;;;;;8.52;2.80;;;2.30;99.90;;;;;;5044273;28;20753;-93
2021/12/05 03:15:44;;;;;;;13.02;2.97;;;2.30;99.90;;;;;;5036491;28;20027;-92
2021/12/05 03:18:10;;;;;;;6.32;3.10;;;2.30;99.90;;;;;;5036837;28;20029;-92
2021/12/05 03:20:36;;;;;;;3.85;2.30;;;2.30;99.90;;;;;;5036407;28;20159;-93
2021/12/05 03:23:03;;;;;;;6.57;3.10;;;2.30;99.90;;;;;;5036864;28;20032;-93
2021/12/05 03:25:29;;;;;;;6.57;2.83;;;2.30;99.90;;;;;;5037686;28;20017;-92
2021/12/05 03:27:54;;;;;;;6.53;3.17;;;2.20;99.90;;;;;;5040407;28;20515;-92
2021/12/05 03:30:23;;;;;;;11.75;3.28;;;2.30;99.90;;;;;;5038742;28;20037;-93
2021/12/05 03:32:50;;;;;;;5.82;3.15;;;2.30;99.90;;;;;;5036221;28;20033;-93
2021/12/05 03:35:18;;;;;;;4.50;3.00;;;2.20;99.90;;;;;;5045100;28;20057;-94
2021/12/05 03:37:47;;;;;;;6.05;2.38;;;2.20;99.90;;;;;;5024050;28;20441;-93
2021/12/05 03:40:14;;;;;;;5.65;2.97;;;2.20;99.90;;;;;;5042620;28;20088;-92
2021/12/05 03:42:40;;;;;;;6.72;4.15;;;2.20;99.90;;;;;;5065141;28;20061;-92
2021/12/05 03:45:10;;;;;;;4.95;2.70;;;2.20;99.90;;;;;;5052934;28;20052;-93
2021/12/05 03:47:37;;;;;;;7.03;2.78;;;2.10;99.90;;;;;;5032068;28;20529;-92
2021/12/05 03:50:05;;;;;;;4.88;2.63;;;2.10;99.90;;;;;;5035158;28;20115;-92
2021/12/05 03:52:32;;;;;;;6.53;2.47;;;2.00;99.90;;;;;;5053956;28;20025;-92
2021/12/05 03:54:57;;;;;;;6.43;2.55;;;2.00;99.90;;;;;;5035602;28;20029;-92
2021/12/05 03:57:26;;;;;;;11.43;3.80;;;1.90;99.90;;;;;;5035730;28;20025;-91
2021/12/05 03:59:52;;;;;;;6.95;3.40;;;1.90;99.90;;;;;;5035682;28;20025;-93
2021/12/05 04:02:18;;;;;;;4.53;2.30;;;1.80;99.90;;;;;;5035932;28;20565;-92
2021/12/05 04:04:44;;;;;;;3.67;2.40;;;1.70;99.90;;;;;;5036396;28;20025;-92
2021/12/05 04:07:13;;;;;;;9.93;2.97;;;1.60;99.90;;;;;;5039850;28;20048;-92
2021/12/05 04:09:38;;;;;;;5.25;2.70;;;1.60;99.90;;;;;;5053619;28;20499;-92
2021/12/05 04:12:05;;;;;;;5.00;2.67;;;1.50;99.90;;;;;;5035556;28;20036;-93
2021/12/05 04:14:45;;;;;;;5.43;2.67;;;1.40;99.90;;;;;;5035533;28;20512;-92
2021/12/05 04:17:13;;;;;;;8.53;3.70;;;1.40;99.90;;;;;;5050224;28;20025;-93
2021/12/05 04:19:40;;;;;;;5.60;3.13;;;1.30;99.90;;;;;;5033527;28;20029;-92
2021/12/05 04:22:07;;;;;;;6.75;2.95;;;1.20;99.90;;;;;;5035016;28;20029;-93
2021/12/05 04:24:35;;;;;;;8.13;2.58;;;1.20;99.90;;;;;;5035257;28;20025;-92
2021/12/05 04:27:01;;;;;;;7.30;2.33;;;1.10;99.90;;;;;;5051356;28;20564;-91
2021/12/05 04:29:27;;;;;;;10.32;4.35;;;1.10;99.90;;;;;;5036548;28;20029;-94
2021/12/05 04:31:53;;;;;;;10.50;3.67;;;1.00;99.90;;;;;;5033151;28;20471;-93
2021/12/05 04:34:19;;;;;;;6.03;3.17;;;1.10;99.90;;;;;;5035348;28;20021;-93
2021/12/05 04:36:45;;;;;;;7.60;3.10;;;1.10;99.90;;;;;;5038277;28;20108;-93
2021/12/05 04:39:12;;;;;;;13.68;4.40;;;1.10;99.90;;;;;;5058915;28;20032;-92
2021/12/05 04:41:42;;;;;;;5.15;2.70;;;1.10;99.90;;;;;;5035615;28;20040;-93
2021/12/05 04:44:08;;;;;;;10.38;3.13;;;1.20;99.90;;;;;;5035360;28;20013;-92
2021/12/05 04:46:35;;;;;;;6.07;3.58;;;1.20;99.90;;;;;;5037227;28;20044;-93
2021/12/05 04:49:02;;;;;;;9.05;3.50;;;1.10;99.90;;;;;;5052910;28;20071;-92
2021/12/05 04:51:32;;;;;;;5.63;3.42;;;1.10;99.90;;;;;;5033598;28;20108;-93
2021/12/05 04:53:58;;;;;;;9.27;3.13;;;1.10;99.90;;;;;;5027201;28;20078;-92
2021/12/05 04:56:25;;;;;;;6.05;3.25;;;1.10;99.90;;;;;;5042272;28;20406;-93
2021/12/05 04:58:53;;;;;;;7.30;4.15;;;1.10;99.90;;;;;;5041098;28;20473;-92
2021/12/05 05:01:20;;;;;;;6.47;4.45;;;1.10;99.90;;;;;;5034288;28;20021;-94
2021/12/05 05:03:46;;;;;;;7.07;3.58;;;1.20;99.90;;;;;;5034925;28;20041;-93
2021/12/05 05:06:17;;;;;;;12.48;4.18;;;1.20;99.90;;;;;;5036288;28;20028;-92
2021/12/05 05:08:50;;;;;;;12.60;5.05;;;1.20;99.90;;;;;;5034706;28;20014;-92
2021/12/05 05:11:18;;;;;;;6.60;4.07;;;1.30;99.90;;;;;;5045796;28;20048;-93
2021/12/05 05:13:46;;;;;;;8.60;3.72;;;1.30;99.90;;;;;;5026299;28;20476;-92
2021/12/05 05:16:14;;;;;;;5.95;3.75;;;1.30;99.90;;;;;;5038470;28;20052;-93
2021/12/05 05:18:48;;;;;;;8.10;4.07;;;1.30;99.90;;;;;;5034932;28;20025;-93
2021/12/05 05:24:17;;;;;;;10.50;3.95;;;1.30;99.90;;;;;;5051532;28;20478;-92
2021/12/05 05:27:20;;;;;;;5.88;3.08;;;1.30;99.90;;;;;;5033172;28;20028;-92
2021/12/05 05:51:05;;;;;;;4.43;2.75;;;1.80;99.90;;;;;;5059206;28;20552;-92
2021/12/05 05:53:31;;;;;;;9.05;4.05;;;1.80;99.90;;;;;;5040591;28;20121;-92
2021/12/05 05:56:01;;;;;;;9.25;4.25;;;1.80;99.90;;;;;;5038987;28;20251;-92
2021/12/05 05:58:52;;;;;;;6.50;4.10;;;1.80;99.90;;;;;;5034154;28;20090;-91
2021/12/05 06:01:44;;;;;;;13.90;4.15;;;1.80;99.90;;;;;;5056036;28;20025;-92
2021/12/05 06:04:08;;;;;;;4.88;3.63;;;1.80;99.90;;;;;;5049144;28;20037;-92
2021/12/05 06:06:34;;;;;;;11.27;3.72;;;1.70;99.90;;;;;;5049336;28;20029;-92
2021/12/05 06:09:01;;;;;;;10.27;4.07;;;1.60;99.90;;;;;;5033610;28;20427;-92
2021/12/05 06:11:27;;;;;;;10.82;4.00;;;1.60;99.90;;;;;;5059718;28;20100;-93
2021/12/05 06:13:53;;;;;;;9.55;4.07;;;1.60;99.90;;;;;;5035697;28;20083;-92
2021/12/05 06:16:20;;;;;;;10.52;3.70;;;1.60;99.90;;;;;;5047892;28;20025;-91
2021/12/05 06:18:47;;;;;;;8.85;3.72;;;1.60;99.90;;;;;;5052043;28;20029;-92
2021/12/05 06:21:16;;;;;;;12.25;3.10;;;1.60;99.90;;;;;;5034833;28;20033;-92
2021/12/05 06:23:43;;;;;;;12.63;3.70;;;1.70;99.90;;;;;;5047606;28;20489;-92
2021/12/05 06:26:12;;;;;;;9.23;4.32;;;1.70;99.90;;;;;;5040776;28;20024;-92
2021/12/05 06:28:43;;;;;;;10.70;3.13;;;1.70;99.90;;;;;;5026702;28;20048;-92
2021/12/05 06:39:26;;;;;;;8.95;3.35;;;1.70;99.90;;;;;;5050624;28;20044;-91
2021/12/05 06:42:20;;;;;;;10.02;3.80;;;1.70;99.90;;;;;;5033595;28;20091;-92
2021/12/05 06:47:31;;;;;;;12.50;8.68;;;1.70;99.90;;;;;;5058831;28;20027;-92
2021/12/05 06:49:57;;;;;;;5.63;4.55;;;1.70;99.90;;;;;;5033626;28;20029;-92
2021/12/05 06:52:24;;;;;;;7.40;4.55;;;1.70;99.90;;;;;;5050453;28;20127;-92
2021/12/05 06:54:50;;;;;;;6.15;3.40;;;1.70;99.90;;;;;;5034331;28;20098;-92
2021/12/05 06:57:17;;;;;;;10.40;5.50;;;1.70;99.90;;;;;;5029747;28;20027;-92
2021/12/05 06:59:45;;;;;;;6.85;3.97;;;1.70;99.90;;;;;;5030731;28;20018;-92
2021/12/05 07:02:14;;;;;;;12.32;3.38;;;1.70;99.90;;;;;;5048581;28;20425;-91
2021/12/05 07:05:06;;;;;;;6.72;3.55;;;1.70;99.90;;;;;;5037176;28;20048;-92
2021/12/05 07:07:36;;;;;;;7.53;3.90;;;1.70;99.90;;;;;;5029610;28;20473;-92
2021/12/05 07:10:06;;;;;;;11.65;3.97;;;1.70;99.90;;;;;;5018238;28;20061;-91
2021/12/05 07:15:27;;;;;;;17.38;4.10;;;1.80;99.90;;;;;;5051227;28;20075;-92
2021/12/05 07:20:51;;;;;;;17.65;12.35;;;1.90;99.90;;;;;;5052675;28;20163;-92
2021/12/05 07:23:40;;;;;;;7.63;4.28;;;1.90;99.90;;;;;;5054092;28;20029;-92
2021/12/05 07:42:49;;;;;;;17.38;10.63;;;2.10;99.90;;;;;;5051576;28;20035;-92
2021/12/05 07:45:20;;;;;;;13.02;10.93;;;2.10;99.90;;;;;;5065556;28;20025;-91
2021/12/05 07:47:50;;;;;;;6.80;4.60;;;2.20;99.90;;;;;;5034851;28;20033;-92
2021/12/05 07:50:16;;;;;;;9.55;2.72;;;2.20;99.90;;;;;;5059700;28;20028;-92
2021/12/05 07:52:47;;;;;;;11.23;4.13;;;2.30;99.90;;;;;;5055071;28;20032;-94
2021/12/05 07:55:26;;;;;;;5.28;2.63;;;2.40;99.90;;;;;;5045831;28;20422;-93
2021/12/05 08:00:26;;;;;;;7.93;2.40;;;2.50;99.90;;;;;;5053687;28;20116;-93
2021/12/05 08:16:34;;;;;;;13.95;2.72;;;2.70;99.90;;;;;;5017115;28;20162;-92
2021/12/05 08:19:00;;;;;;;7.10;2.88;;;2.60;99.90;;;;;;5035638;28;20448;-91
2021/12/05 08:21:26;;;;;;;4.75;3.05;;;2.60;99.90;;;;;;5064704;28;20029;-93
2021/12/05 08:23:52;;;;;;;6.57;3.42;;;2.60;99.90;;;;;;5044798;28;20025;-92
2021/12/05 08:26:23;;;;;;;6.25;3.75;;;2.50;99.90;;;;;;5053511;28;20082;-92
2021/12/05 08:31:45;;;;;;;4.82;2.70;;;2.60;99.90;;;;;;5053234;28;20025;-92
2021/12/05 08:40:09;;;;;;;9.68;3.35;;;2.80;99.90;;;;;;5055987;28;20040;-92
2021/12/05 09:31:16;;;;;;;7.13;1.45;;;12.90;96.20;;;;;;5048059;28;20370;-92
2021/12/05 10:10:04;;;;;;;4.38;1.58;;;7.50;99.90;;;;;;5041148;28;20016;-94
2021/12/05 10:15:29;;;;;;;3.75;1.50;;;7.50;99.90;;;;;;5060106;28;20025;-93
2021/12/05 10:35:12;;;;;;;5.20;1.60;;;6.90;99.90;;;;;;5050380;28;20067;-93
2021/12/05 10:37:46;;;;;;;8.52;1.90;;;6.80;99.90;;;;;;5057845;28;20044;-94
2021/12/05 10:40:20;;;;;;;4.53;1.20;;;7.00;99.90;;;;;;5040402;28;20017;-93
2021/12/05 10:42:52;;;;;;;4.30;1.58;;;7.10;99.90;;;;;;5036178;28;20057;-94
2021/12/05 10:45:30;;;;;;;2.38;1.00;;;7.30;99.90;;;;;;5034721;28;20028;-92
2021/12/05 10:47:59;;;;;;;4.47;1.15;;;7.40;99.90;;;;;;5033807;28;20532;-93
2021/12/05 10:50:43;;;;;;;5.07;1.45;;;7.50;99.90;;;;;;5032385;28;20105;-93
2021/12/05 10:53:28;;;;;;;3.53;1.10;;;7.90;99.90;;;;;;5034381;28;20021;-94
2021/12/05 10:55:59;;;;;;;3.33;0.90;;;8.80;99.90;;;;;;5030815;28;20021;-94
2021/12/05 10:58:33;;;;;;;2.40;1.00;;;9.60;99.90;;;;;;5036548;28;20017;-94
2021/12/05 11:01:11;;;;;;;4.35;1.33;;;10.20;99.90;;;;;;5041200;28;20120;-93
2021/12/05 11:03:38;;;;;;;1.67;1.05;;;10.30;99.90;;;;;;5048479;28;20377;-94
2021/12/05 11:06:22;;;;;;;3.50;1.38;;;10.10;99.90;;;;;;5053268;28;20031;-92
2021/12/05 11:08:56;;;;;;;2.75;1.20;;;10.10;99.90;;;;;;5032395;28;20480;-94
2021/12/05 11:11:23;;;;;;;3.92;3.25;;;10.20;99.90;;;;;;5053401;28;20021;-94
2021/12/05 11:13:50;;;;;;;4.07;2.25;;;10.10;99.90;;;;;;5028167;28;20017;-93
2021/12/05 11:16:37;;;;;;;8.05;2.58;;;9.70;99.90;;;;;;5029877;28;20108;-93
2021/12/05 11:19:39;;;;;;;2.92;1.00;;;9.60;99.90;;;;;;5050780;28;20032;-93
2021/12/05 11:22:18;;;;;;;3.92;1.52;;;9.40;99.90;;;;;;5055939;28;20029;-93
2021/12/05 11:24:53;;;;;;;2.95;1.02;;;9.10;99.90;;;;;;5044057;28;20033;-93
2021/12/05 11:27:24;;;;;;;3.15;1.20;;;8.80;99.90;;;;;;5055493;28;20029;-92
2021/12/05 11:30:00;;;;;;;3.77;1.00;;;8.20;99.90;;;;;;5043305;28;20025;-94
2021/12/05 11:32:39;;;;;;;5.10;1.52;;;7.80;99.90;;;;;;5029023;28;20033;-93
2021/12/05 11:35:21;;;;;;;3.72;1.00;;;7.50;99.90;;;;;;5036537;28;20020;-92
2021/12/05 11:38:02;;;;;;;4.07;1.40;;;7.20;99.90;;;;;;5051909;28;20024;-93
2021/12/05 11:41:06;;;;;;;3.78;1.00;;;7.00;99.90;;;;;;5030902;28;20040;-93
2021/12/05 11:43:48;;;;;;;2.33;0.90;;;6.90;99.90;;;;;;5021414;28;20045;-92
2021/12/05 11:46:44;;;;;;;5.05;1.20;;;6.80;99.90;;;;;;5060808;28;20021;-93
2021/12/05 11:49:13;;;;;;;3.47;1.05;;;6.70;99.90;;;;;;5026758;28;20036;-92
2021/12/05 11:51:45;;;;;;;4.15;1.20;;;6.70;99.90;;;;;;5037451;28;20080;-93
2021/12/05 11:54:22;;;;;;;6.68;1.73;;;6.40;99.90;;;;;;5036494;28;20108;-92
2021/12/05 11:56:53;;;;;;;3.28;1.00;;;6.00;99.90;;;;;;5036984;28;20028;-93
2021/12/05 11:59:19;;;;;;;4.03;1.55;;;5.80;99.90;;;;;;5034248;28;20049;-91
2021/12/05 12:02:11;;;;;;;5.13;1.55;;;5.70;99.90;;;;;;5036919;28;20025;-92
2021/12/05 12:04:45;;;;;;;5.95;1.35;;;5.60;99.90;;;;;;4999741;28;20025;-92
2021/12/05 12:07:37;;;;;;;6.25;2.97;;;5.60;99.90;;;;;;5036336;28;20102;-93
2021/12/05 12:10:31;;;;;;;10.65;7.68;;;5.60;99.90;;;;;;5043767;28;20606;-92
2021/12/05 12:13:09;;;;;;;3.92;1.30;;;5.70;99.90;;;;;;5026364;28;20033;-92
2021/12/05 12:15:36;;;;;;;5.13;1.90;;;5.60;99.90;;;;;;5038061;28;20029;-93
2021/12/05 12:18:12;;;;;;;1.95;1.30;;;5.60;99.90;;;;;;5054021;28;20032;-92
2021/12/05 12:20:39;;;;;;;5.10;1.48;;;5.70;99.90;;;;;;5025068;28;20083;-93
2021/12/05 12:23:07;;;;;;;4.43;1.70;;;5.80;99.90;;;;;;5042610;28;20025;-92
2021/12/05 12:25:38;;;;;;;7.38;1.88;;;5.60;99.90;;;;;;5032833;28;20021;-92
2021/12/05 12:28:06;;;;;;;3.45;1.80;;;5.60;99.90;;;;;;5046482;28;20036;-93
2021/12/05 12:30:36;;;;;;;5.13;1.33;;;5.70;99.90;;;;;;5016209;28;20108;-92
2021/12/05 12:33:06;;;;;;;6.25;4.40;;;5.80;99.90;;;;;;5029866;28;20120;-92
2021/12/05 12:35:35;;;;;;;7.07;3.83;;;5.90;99.90;;;;;;5035509;28;20025;-93
2021/12/05 12:38:07;;;;;;;9.55;2.97;;;5.90;99.90;;;;;;5033260;28;20033;-93
2021/12/05 12:40:41;;;;;;;7.57;2.80;;;6.00;99.90;;;;;;5029657;28;20017;-93
2021/12/05 12:43:28;;;;;;;7.38;3.28;;;6.00;99.90;;;;;;5033205;28;20079;-93
2021/12/05 12:45:54;;;;;;;9.90;5.03;;;6.00;99.90;;;;;;5034503;28;20079;-91
2021/12/05 12:48:26;;;;;;;8.00;3.45;;;6.10;99.90;;;;;;5035727;28;20025;-93
2021/12/05 12:50:52;;;;;;;7.93;3.03;;;6.20;99.90;;;;;;5035403;28;20021;-93
2021/12/05 12:53:20;;;;;;;8.18;3.20;;;6.30;99.90;;;;;;5036224;28;20082;-92
2021/12/05 12:56:18;;;;;;;7.03;3.83;;;6.40;99.90;;;;;;5035857;28;20316;-92
2021/12/05 12:58:55;;;;;;;3.83;2.03;;;6.50;99.90;;;;;;5044721;28;20511;-92
2021/12/05 13:12:41;;;;;;;3.60;2.08;;;6.10;99.90;;;;;;5053570;28;20037;-91
2021/12/05 13:15:16;;;;;;;4.25;2.10;;;6.00;99.90;;;;;;5025668;28;20116;-92
2021/12/05 13:17:49;;;;;;;3.92;1.52;;;5.90;99.90;;;;;;5032087;28;20104;-92
2021/12/05 13:20:20;;;;;;;7.65;2.42;;;5.80;99.90;;;;;;5041724;28;20021;-92
2021/12/05 13:23:15;;;;;;;1.95;1.15;;;5.70;99.90;;;;;;5052631;28;20025;-91
2021/12/05 13:26:16;;;;;;;3.30;1.48;;;5.50;99.90;;;;;;5031383;28;20225;-92
2021/12/05 13:28:47;;;;;;;3.60;1.27;;;5.50;99.90;;;;;;4996427;28;20067;-92
2021/12/05 13:31:28;;;;;;;4.97;1.63;;;5.30;99.90;;;;;;5036472;28;20036;-91
2021/12/05 13:34:24;;;;;;;2.53;1.30;;;5.20;99.90;;;;;;5023077;28;20111;-92
2021/12/05 13:37:05;;;;;;;4.10;1.40;;;5.10;99.90;;;;;;5043184;28;20409;-92
2021/12/05 13:39:47;;;;;;;5.00;1.73;;;5.00;99.90;;;;;;5032245;28;20167;-92
2021/12/05 13:42:27;;;;;;;5.88;2.45;;;4.90;99.90;;;;;;5041924;28;20108;-93
2021/12/05 13:45:05;;;;;;;3.47;1.63;;;4.90;99.90;;;;;;5040672;28;20021;-92
2021/12/05 13:47:43;;;;;;;4.28;1.38;;;4.90;99.90;;;;;;5031376;28;20033;-93
2021/12/05 13:50:25;;;;;;;2.92;1.55;;;4.80;99.90;;;;;;5041802;28;20021;-93
2021/12/05 13:52:58;;;;;;;4.82;1.55;;;4.80;99.90;;;;;;5047188;28;20029;-92
2021/12/05 13:55:42;;;;;;;3.60;1.77;;;4.70;99.90;;;;;;5048957;28;20026;-93
2021/12/05 13:58:23;;;;;;;7.35;1.83;;;4.70;99.90;;;;;;5032454;28;20036;-92
2021/12/05 14:00:55;;;;;;;3.10;1.88;;;4.70;99.90;;;;;;5037721;28;20056;-92
2021/12/05 14:03:51;;;;;;;2.80;1.58;;;4.70;99.90;;;;;;5033951;28;20043;-92
2021/12/05 14:06:49;;;;;;;5.10;2.08;;;4.70;99.90;;;;;;5041651;28;20033;-93
2021/12/05 14:09:48;;;;;;;6.05;1.80;;;4.70;99.90;;;;;;5034693;28;20018;-92
2021/12/05 14:12:29;;;;;;;5.50;1.70;;;4.60;99.90;;;;;;5014480;28;20450;-92
2021/12/05 14:15:00;;;;;;;7.47;2.03;;;4.60;99.90;;;;;;5030803;28;20026;-91
2021/12/05 14:17:33;;;;;;;;;;;4.50;99.90;;;;;;5028766;28;20079;-92
2021/12/05 14:20:02;;;;;;;3.67;1.83;;;4.50;99.90;;;;;;5031061;28;19967;-91
2021/12/05 14:22:31;;;;;;;6.07;1.65;;;4.40;99.90;;;;;;5029535;28;20017;-92
2021/12/05 14:25:00;;;;;;;7.13;2.03;;;4.40;99.90;;;;;;5048797;28;20148;-92
2021/12/05 14:27:31;;;;;;;13.95;2.75;;;4.30;99.90;;;;;;5030651;28;20402;-93
2021/12/05 14:29:58;;;;;;;4.63;2.38;;;4.30;99.90;;;;;;5022212;28;20048;-93
2021/12/05 14:32:27;;;;;;;10.45;4.22;;;4.20;99.90;;;;;;5028653;28;20038;-93
2021/12/05 14:35:02;;;;;;;4.40;2.38;;;4.20;99.90;;;;;;5036314;28;20116;-92
2021/12/05 14:37:33;;;;;;;8.93;2.72;;;4.20;99.90;;;;;;5036840;28;20124;-93
2021/12/05 14:40:10;;;;;;;6.10;2.05;;;4.20;99.90;;;;;;5044673;28;20146;-92
2021/12/05 14:42:40;;;;;;;8.75;2.40;;;4.20;99.90;;;;;;5054373;28;20029;-93
2021/12/05 14:45:12;;;;;;;5.65;2.30;;;4.10;99.90;;;;;;5038115;28;20029;-93
2021/12/05 14:47:40;;;;;;;4.03;2.08;;;4.10;99.90;;;;;;5036802;28;20045;-93
2021/12/05 14:50:17;;;;;;;7.47;3.00;;;4.00;99.90;;;;;;5045045;28;20025;-92
2021/12/05 14:52:48;;;;;;;4.35;2.47;;;4.00;99.90;;;;;;5055206;28;20108;-92
2021/12/05 14:55:18;;;;;;;6.47;3.83;;;3.90;99.90;;;;;;5036061;28;20033;-92
2021/12/05 14:57:56;;;;;;;3.28;1.90;;;3.90;99.90;;;;;;5049578;28;20026;-92
2021/12/05 15:00:40;;;;;;;5.70;3.33;;;3.90;99.90;;;;;;5028711;28;20052;-92
2021/12/05 15:03:17;;;;;;;8.13;2.63;;;3.80;99.90;;;;;;5057807;28;20032;-92
2021/12/05 15:05:56;;;;;;;5.63;2.70;;;3.80;99.90;;;;;;5041964;28;20022;-93
2021/12/05 15:08:25;;;;;;;8.05;3.75;;;3.70;99.90;;;;;;5039395;28;20028;-93
2021/12/05 15:11:00;;;;;;;5.53;2.63;;;3.70;99.90;;;;;;5038104;28;20029;-92
2021/12/05 15:13:29;;;;;;;6.90;5.55;;;3.70;99.90;;;;;;5045830;28;20029;-92
2021/12/05 15:15:56;;;;;;;6.72;5.90;;;3.70;99.90;;;;;;5038552;28;20079;-91
2021/12/05 15:18:29;;;;;;;10.52;7.72;;;3.70;99.90;;;;;;5058099;28;20500;-93
2021/12/05 15:20:58;;;;;;;12.25;9.68;;;3.70;99.90;;;;;;5036536;28;20029;-90
2021/12/05 15:23:31;;;;;;;14.25;11.65;;;3.70;99.90;;;;;;5035027;28;20029;-91
2021/12/05 15:25:59;;;;;;;23.80;15.60;;;3.70;99.90;;;;;;5041076;28;20024;-93
2021/12/05 15:28:25;;;;;;;14.70;10.05;;;3.70;99.90;;;;;;5039538;28;20060;-92
2021/12/05 15:30:52;;;;;;;12.48;10.25;;;3.70;99.90;;;;;;5032132;28;20060;-92
2021/12/05 15:33:23;;;;;;;25.85;14.68;;;3.70;99.90;;;;;;5036780;28;20036;-91
2021/12/05 15:35:50;;;;;;;44.95;24.42;;;3.70;99.90;;;;;;5036124;28;20025;-91
2021/12/05 15:38:24;;;;;;;20.77;12.15;;;3.70;99.90;;;;;;5053843;28;20112;-92
2021/12/05 15:40:53;;;;;;;11.90;10.48;;;3.80;99.90;;;;;;5054550;28;20028;-94
2021/12/05 15:43:22;;;;;;;13.63;9.32;;;3.70;99.90;;;;;;5054518;28;20025;-92
2021/12/05 15:45:50;;;;;;;10.45;6.40;;;3.70;99.90;;;;;;5041332;28;20033;-92
2021/12/05 15:48:29;;;;;;;6.68;5.70;;;3.70;99.90;;;;;;5038005;28;20393;-93
2021/12/05 15:50:56;;;;;;;12.65;8.55;;;3.70;99.90;;;;;;5031604;28;20014;-92
2021/12/05 15:53:24;;;;;;;10.38;6.13;;;3.60;99.90;;;;;;5033103;28;20034;-93
2021/12/05 15:55:58;;;;;;;5.88;4.07;;;3.60;99.90;;;;;;5040561;28;20028;-94
2021/12/05 15:58:31;;;;;;;5.05;4.10;;;3.60;99.90;;;;;;5036088;28;20045;-92
2021/12/05 16:01:15;;;;;;;6.35;4.55;;;3.50;99.90;;;;;;5043896;28;20037;-93
2021/12/05 16:03:52;;;;;;;7.07;4.38;;;3.50;99.90;;;;;;5043260;28;20112;-94
2021/12/05 16:06:20;;;;;;;9.15;4.35;;;3.40;99.90;;;;;;5027647;28;20093;-94
2021/12/05 16:08:51;;;;;;;9.18;4.50;;;3.40;99.90;;;;;;5035894;28;20032;-92
2021/12/05 16:11:19;;;;;;;7.38;5.07;;;3.40;99.90;;;;;;5037216;28;20030;-93
2021/12/05 16:13:48;;;;;;;11.45;6.32;;;3.40;99.90;;;;;;5036231;28;20029;-93
2021/12/05 16:16:14;;;;;;;6.55;5.40;;;3.40;99.90;;;;;;5035397;28;20030;-93
2021/12/05 16:18:43;;;;;;;10.68;7.90;;;3.40;99.90;;;;;;5035911;28;20027;-92
2021/12/05 16:21:36;;;;;;;9.13;5.65;;;3.30;99.90;;;;;;5064846;28;20025;-92
2021/12/05 16:24:06;;;;;;;6.63;5.38;;;3.30;99.90;;;;;;5033210;28;20036;-93
2021/12/05 16:26:33;;;;;;;7.60;5.90;;;3.30;99.90;;;;;;5027665;28;20037;-93
2021/12/05 16:29:07;;;;;;;6.18;4.82;;;3.30;99.90;;;;;;5041712;28;20025;-92
2021/12/05 16:31:39;;;;;;;11.68;5.13;;;3.30;99.90;;;;;;5035841;28;20039;-92
2021/12/05 16:34:22;;;;;;;10.27;6.43;;;3.30;99.90;;;;;;5034985;28;20040;-92
2021/12/05 16:36:57;;;;;;;10.90;6.30;;;3.30;99.90;;;;;;5036881;28;20562;-92
2021/12/05 16:39:45;;;;;;;11.65;6.78;;;3.30;99.90;;;;;;5035288;28;20033;-92
2021/12/05 16:42:17;;;;;;;13.38;10.68;;;3.30;99.90;;;;;;5029304;28;20024;-91
2021/12/05 16:44:58;;;;;;;18.83;10.95;;;3.20;99.90;;;;;;5049505;28;20017;-92
2021/12/05 16:47:27;;;;;;;17.73;11.60;;;3.20;99.90;;;;;;5024187;28;20044;-93
2021/12/05 16:50:01;;;;;;;14.45;9.68;;;3.20;99.90;;;;;;5035072;28;20074;-91
2021/12/05 16:52:31;;;;;;;23.17;15.98;;;3.20;99.90;;;;;;5035332;28;20029;-92
2021/12/05 16:55:15;;;;;;;19.10;12.98;;;3.10;99.90;;;;;;5047071;28;20584;-91
2021/12/05 16:57:48;;;;;;;9.48;6.93;;;3.10;99.90;;;;;;5034883;28;20033;-92
2021/12/05 17:00:22;;;;;;;15.73;10.73;;;3.10;99.90;;;;;;5033323;28;20036;-93
2021/12/05 17:02:52;;;;;;;9.43;6.80;;;3.10;99.90;;;;;;5035679;28;20398;-92
2021/12/05 17:05:27;;;;;;;8.25;7.38;;;3.00;99.90;;;;;;5042395;28;20040;-92
2021/12/05 17:08:08;;;;;;;10.93;8.63;;;3.00;99.90;;;;;;5053438;28;20136;-92
2021/12/05 17:10:55;;;;;;;12.73;7.13;;;3.00;99.90;;;;;;5024994;28;20020;-92
2021/12/05 17:13:34;;;;;;;9.20;6.57;;;3.00;99.90;;;;;;5035962;28;20434;-91
2021/12/05 17:16:29;;;;;;;13.95;8.10;;;3.00;99.90;;;;;;5031847;28;20049;-92
2021/12/05 17:19:01;;;;;;;5.80;5.00;;;2.90;99.90;;;;;;5014501;28;20055;-90
2021/12/05 17:21:33;;;;;;;9.25;4.95;;;2.90;99.90;;;;;;5028808;28;20022;-93
2021/12/05 17:24:00;;;;;;;;;;;2.80;99.90;;;;;;5026413;28;20043;-91
2021/12/05 17:26:39;;;;;;;7.07;5.15;;;2.80;99.90;;;;;;5029922;28;19928;-91
2021/12/05 17:29:17;;;;;;;9.13;5.28;;;2.70;99.90;;;;;;5042926;28;20017;-91
2021/12/05 17:31:47;;;;;;;12.80;6.15;;;2.70;99.90;;;;;;5023402;28;20116;-91
2021/12/05 17:34:26;;;;;;;10.50;5.33;;;2.70;99.90;;;;;;5034283;28;20125;-92
2021/12/05 17:37:03;;;;;;;9.23;6.07;;;2.60;99.90;;;;;;5050167;28;20033;-91
2021/12/05 17:39:32;;;;;;;9.38;6.55;;;2.70;99.90;;;;;;5033233;28;20025;-91
2021/12/05 17:42:02;;;;;;;8.85;8.05;;;2.60;99.90;;;;;;5033706;28;20041;-91
2021/12/05 17:44:28;;;;;;;11.18;8.48;;;2.60;99.90;;;;;;5034754;28;20476;-92
2021/12/05 17:46:57;;;;;;;12.90;7.88;;;2.60;99.90;;;;;;5039097;28;20166;-91
2021/12/05 17:49:29;;;;;;;9.88;8.88;;;2.60;99.90;;;;;;5034470;28;20032;-92
2021/12/05 17:51:58;;;;;;;14.40;11.70;;;2.50;99.90;;;;;;5053765;28;20122;-91
2021/12/05 17:57:17;;;;;;;25.67;15.68;;;2.50;99.90;;;;;;5008600;28;20421;-92
2021/12/05 18:05:12;;;;;;;13.90;9.50;;;2.50;99.90;;;;;;5067053;28;20550;-91
2021/12/05 18:07:42;;;;;;;13.80;9.07;;;2.50;99.90;;;;;;5033485;28;20492;-91
2021/12/05 18:10:08;;;;;;;408.55;153.00;;;2.50;99.90;;;;;;5036194;28;20486;-92
2021/12/05 18:12:36;;;;;;;125.90;51.67;;;2.50;99.90;;;;;;5035705;28;20082;-91
2021/12/05 18:15:14;;;;;;;31.42;18.83;;;2.60;99.90;;;;;;5037680;28;20028;-92
2021/12/05 18:17:40;;;;;;;29.42;17.05;;;2.60;99.90;;;;;;5033155;28;20024;-92
2021/12/05 18:20:08;;;;;;;30.45;16.88;;;2.60;99.90;;;;;;5033095;28;20013;-91
2021/12/05 18:22:37;;;;;;;26.10;16.02;;;2.60;99.90;;;;;;5034357;28;20013;-93
2021/12/05 18:25:04;;;;;;;21.92;12.98;;;2.70;99.90;;;;;;4986425;28;20041;-91
2021/12/05 18:27:30;;;;;;;24.35;13.60;;;2.70;99.90;;;;;;5027462;28;20029;-92
2021/12/05 18:29:56;;;;;;;19.20;16.25;;;2.70;99.90;;;;;;5038154;28;20060;-92
2021/12/05 18:32:25;;;;;;;20.60;15.02;;;2.70;99.90;;;;;;5038725;28;20061;-91
2021/12/05 18:34:51;;;;;;;16.23;13.27;;;2.70;99.90;;;;;;5041612;28;20047;-91
2021/12/05 18:37:16;;;;;;;25.00;15.82;;;2.70;99.90;;;;;;5033927;28;20440;-91
2021/12/05 18:39:45;;;;;;;37.55;17.50;;;2.70;99.90;;;;;;5041088;28;20031;-91
2021/12/05 18:42:13;;;;;;;43.78;17.88;;;2.70;99.90;;;;;;5069484;28;20024;-90
2021/12/05 18:44:45;;;;;;;50.00;19.25;;;2.70;99.90;;;;;;5033908;28;20077;-92
2021/12/05 18:47:17;;;;;;;45.58;16.55;;;2.70;99.90;;;;;;5030264;28;20390;-92
2021/12/05 18:49:46;;;;;;;23.20;13.13;;;2.80;99.90;;;;;;5030076;28;20026;-90